Time;durP1;ratioP1;P1;durP2;ratioP2;P2;SDS_P1;SDS_P2;PMS_P1;PMS_P2;Temp;Humidity;BMP_temperature;BMP_pressure;BME280_temperature;BME280_humidity;BME280_pressure;Samples;Min_cycle;Max_cycle;Signal;HPM_P1;HPM_P2
2021/07/18 00:02:19;;;;;;;;;;;;;;;22.81;65.15;102281.75;4995887;28;935;-69
2021/07/18 00:04:44;;;;;;;;;;;;;;;22.82;65.17;102291.59;4995610;28;816;-69
2021/07/18 00:07:09;;;;;;;;;;;;;;;22.80;65.14;102280.88;4995584;28;998;-69
2021/07/18 00:09:34;;;;;;;;;;;;;;;22.80;65.09;102288.16;5001874;28;1850;-69
2021/07/18 00:11:59;;;;;;;;;;;;;;;22.79;65.34;102290.03;5013416;28;1918;-69
2021/07/18 00:14:24;;;;;;;;;;;;;;;22.78;65.35;102288.31;4995547;28;930;-69
2021/07/18 00:16:50;;;;;;;;;;;;;;;22.78;65.12;102290.19;5026909;28;819;-69
2021/07/18 00:19:15;;;;;;;;;;;;;;;22.77;65.08;102277.59;5026869;28;1192;-69
2021/07/18 00:21:40;;;;;;;;;;;;;;;22.76;65.23;102279.41;5002401;28;1880;-69
2021/07/18 00:24:05;;;;;;;;;;;;;;;22.77;65.46;102283.03;5014862;28;827;-69
2021/07/18 00:26:30;;;;;;;;;;;;;;;22.75;65.15;102266.00;5015121;28;846;-69
2021/07/18 00:28:55;;;;;;;;;;;;;;;22.74;65.19;102258.84;5029788;28;1923;-69
2021/07/18 00:31:20;;;;;;;;;;;;;;;22.74;65.11;102270.56;5007053;28;1902;-69
2021/07/18 00:33:45;;;;;;;;;;;;;;;22.74;65.36;102264.28;4995508;28;954;-69
2021/07/18 00:36:10;;;;;;;;;;;;;;;22.73;65.36;102262.56;4995577;28;804;-69
2021/07/18 00:38:35;;;;;;;;;;;;;;;22.72;65.31;102269.84;4995160;28;831;-69
2021/07/18 00:41:00;;;;;;;;;;;;;;;22.72;65.09;102266.28;5012384;28;1911;-69
2021/07/18 00:43:25;;;;;;;;;;;;;;;22.70;65.37;102266.41;5029905;28;1222;-69
2021/07/18 00:45:51;;;;;;;;;;;;;;;22.71;65.25;102264.56;5015155;28;906;-69
2021/07/18 00:48:16;;;;;;;;;;;;;;;22.70;65.23;102265.56;5013829;28;1874;-70
2021/07/18 00:50:44;;;;;;;;;;;;;;;22.70;65.13;102271.00;4995712;28;1073;-69
2021/07/18 00:53:09;;;;;;;;;;;;;;;22.67;65.12;102263.97;4999084;28;1878;-69
2021/07/18 00:55:38;;;;;;;;;;;;;;;22.66;65.30;102261.41;4998708;28;1218;-70
2021/07/18 00:58:03;;;;;;;;;;;;;;;22.66;65.27;102262.25;4999301;28;831;-69
2021/07/18 01:00:28;;;;;;;;;;;;;;;22.65;65.46;102256.97;5017351;28;1970;-69
2021/07/18 01:02:53;;;;;;;;;;;;;;;22.64;65.36;102253.38;5018667;28;989;-69
2021/07/18 01:05:18;;;;;;;;;;;;;;;22.64;65.46;102258.81;5018262;28;827;-69
2021/07/18 01:07:43;;;;;;;;;;;;;;;22.63;65.23;102256.25;5018361;28;1014;-69
2021/07/18 01:10:09;;;;;;;;;;;;;;;22.62;65.31;102254.53;4999896;28;1872;-69
2021/07/18 01:12:34;;;;;;;;;;;;;;;22.62;65.25;102254.53;5030175;28;1977;-69
2021/07/18 01:14:59;;;;;;;;;;;;;;;22.61;65.20;102247.38;4998812;28;998;-69
2021/07/18 01:17:24;;;;;;;;;;;;;;;22.61;65.30;102252.81;4998424;28;1065;-69
2021/07/18 01:19:49;;;;;;;;;;;;;;;22.60;65.32;102251.09;5013708;28;1949;-69
2021/07/18 01:22:14;;;;;;;;;;;;;;;22.59;65.11;102250.25;5018311;28;902;-69
2021/07/18 01:24:39;;;;;;;;;;;;;;;22.58;65.48;102245.81;5018167;28;994;-69
2021/07/18 01:27:04;;;;;;;;;;;;;;;22.58;65.28;102243.09;5018023;28;1097;-69
2021/07/18 01:29:29;;;;;;;;;;;;;;;22.59;65.28;102241.22;5002594;28;1962;-69
2021/07/18 01:31:54;;;;;;;;;;;;;;;22.58;65.34;102239.50;4998524;28;1961;-69
2021/07/18 01:34:19;;;;;;;;;;;;;;;22.57;65.18;102235.09;4998283;28;811;-69
2021/07/18 01:36:44;;;;;;;;;;;;;;;22.56;65.27;102233.38;5003434;28;1880;-69
2021/07/18 01:39:10;;;;;;;;;;;;;;;22.55;65.25;102231.69;5017484;28;1828;-69
2021/07/18 01:41:35;;;;;;;;;;;;;;;22.55;65.24;102237.09;5032846;28;1318;-68
2021/07/18 01:44:00;;;;;;;;;;;;;;;22.56;65.17;102228.81;5018061;28;1032;-69
2021/07/18 01:46:25;;;;;;;;;;;;;;;22.54;65.17;102235.38;5029810;28;1881;-69
2021/07/18 01:48:50;;;;;;;;;;;;;;;22.52;65.21;102233.66;4998163;28;843;-68
2021/07/18 01:51:15;;;;;;;;;;;;;;;22.52;65.12;102230.97;4998019;28;1902;-68
2021/07/18 01:53:40;;;;;;;;;;;;;;;22.52;65.17;102239.09;5029496;28;839;-69
2021/07/18 01:56:05;;;;;;;;;;;;;;;22.52;65.36;102239.09;4997916;28;1108;-69
2021/07/18 01:58:31;;;;;;;;;;;;;;;22.51;65.22;102234.66;5030418;28;1847;-69
2021/07/18 02:00:56;;;;;;;;;;;;;;;22.52;65.18;102232.81;4998088;28;914;-69
2021/07/18 02:03:22;;;;;;;;;;;;;;;22.51;65.42;102233.81;5028589;28;976;-69
2021/07/18 02:05:47;;;;;;;;;;;;;;;22.50;65.27;102240.25;5029214;28;1847;-69
2021/07/18 02:08:12;;;;;;;;;;;;;;;22.50;65.35;102226.66;5049320;28;1809;-69
2021/07/18 02:10:37;;;;;;;;;;;;;;;22.48;65.25;102237.66;5032304;28;1672;-69
2021/07/18 02:13:03;;;;;;;;;;;;;;;22.48;65.31;102240.38;5017030;28;1952;-69
2021/07/18 02:15:28;;;;;;;;;;;;;;;22.48;65.42;102231.38;5017315;28;952;-69
2021/07/18 02:17:53;;;;;;;;;;;;;;;22.47;65.22;102233.25;5000133;28;2089;-68
2021/07/18 02:20:18;;;;;;;;;;;;;;;22.46;65.13;102227.94;5029090;28;985;-68
2021/07/18 02:22:43;;;;;;;;;;;;;;;22.45;65.19;102232.50;4997386;28;954;-68
2021/07/18 02:25:08;;;;;;;;;;;;;;;22.46;65.41;102236.94;4997510;28;1034;-68
2021/07/18 02:27:33;;;;;;;;;;;;;;;22.45;65.23;102243.38;5013482;28;1969;-68
2021/07/18 02:29:58;;;;;;;;;;;;;;;22.44;65.43;102232.66;5016743;28;993;-68
2021/07/18 02:32:23;;;;;;;;;;;;;;;22.43;65.13;102231.81;5016780;28;1956;-68
2021/07/18 02:34:48;;;;;;;;;;;;;;;22.44;65.24;102227.22;5016869;28;1001;-68
2021/07/18 02:37:14;;;;;;;;;;;;;;;22.43;65.38;102234.50;5003534;28;1867;-68
2021/07/18 02:39:39;;;;;;;;;;;;;;;22.43;65.02;102229.09;4996912;28;969;-69
2021/07/18 02:42:04;;;;;;;;;;;;;;;22.42;65.13;102230.09;4997123;28;1053;-69
2021/07/18 02:44:29;;;;;;;;;;;;;;;22.41;65.09;102233.78;4997188;28;854;-69
2021/07/18 02:46:54;;;;;;;;;;;;;;;22.40;65.21;102233.94;5009851;28;1968;-68
2021/07/18 02:49:19;;;;;;;;;;;;;;;22.40;65.30;102223.94;5016423;28;2032;-69
2021/07/18 02:51:44;;;;;;;;;;;;;;;22.39;65.23;102224.94;5016663;28;1956;-68
2021/07/18 02:54:09;;;;;;;;;;;;;;;22.40;65.34;102221.22;5016237;28;875;-69
2021/07/18 02:56:35;;;;;;;;;;;;;;;22.38;65.39;102220.53;5006319;28;1855;-69
2021/07/18 02:59:00;;;;;;;;;;;;;;;22.38;64.99;102215.09;4997041;28;1042;-69
2021/07/18 03:01:25;;;;;;;;;;;;;;;22.38;65.25;102214.25;4996717;28;874;-69
2021/07/18 03:03:50;;;;;;;;;;;;;;;22.36;65.30;102211.66;4996954;28;1002;-68
2021/07/18 03:06:15;;;;;;;;;;;;;;;22.37;65.19;102212.53;4996624;28;1251;-69
2021/07/18 03:08:40;;;;;;;;;;;;;;;22.36;65.20;102213.53;5005480;28;1723;-68
2021/07/18 03:11:06;;;;;;;;;;;;;;;22.36;65.23;102210.81;5015922;28;792;-68
2021/07/18 03:13:31;;;;;;;;;;;;;;;22.35;65.19;102209.09;5015882;28;1891;-69
2021/07/18 03:15:56;;;;;;;;;;;;;;;22.34;65.21;102208.22;5016467;28;1057;-69
2021/07/18 03:18:21;;;;;;;;;;;;;;;22.34;65.05;102208.22;5016197;28;1009;-69
2021/07/18 03:20:46;;;;;;;;;;;;;;;22.33;65.10;102213.78;5005920;28;1804;-69
2021/07/18 03:23:11;;;;;;;;;;;;;;;22.33;65.04;102211.09;4996207;28;831;-69
2021/07/18 03:25:36;;;;;;;;;;;;;;;22.33;65.10;102211.09;4996400;28;1036;-69
2021/07/18 03:28:01;;;;;;;;;;;;;;;22.33;65.16;102205.66;4996483;28;946;-69
2021/07/18 03:30:26;;;;;;;;;;;;;;;22.31;65.08;102203.06;4996156;28;875;-68
2021/07/18 03:32:51;;;;;;;;;;;;;;;22.31;65.18;102208.50;5007483;28;2030;-69
2021/07/18 03:35:16;;;;;;;;;;;;;;;22.30;65.19;102212.22;5015756;28;784;-69
2021/07/18 03:37:42;;;;;;;;;;;;;;;22.29;64.91;102201.50;5015666;28;795;-69
2021/07/18 03:40:07;;;;;;;;;;;;;;;22.29;65.20;102198.78;5013320;28;1695;-69
2021/07/18 03:42:32;;;;;;;;;;;;;;;22.29;65.01;102198.78;5027585;28;985;-69
2021/07/18 03:44:57;;;;;;;;;;;;;;;22.28;65.23;102192.50;4996090;28;890;-68
2021/07/18 03:47:22;;;;;;;;;;;;;;;22.27;65.07;102201.63;4995926;28;1061;-68
2021/07/18 03:49:47;;;;;;;;;;;;;;;22.26;65.15;102199.91;4996135;28;832;-68
2021/07/18 03:52:12;;;;;;;;;;;;;;;22.26;65.19;102199.91;5014157;28;1965;-68
2021/07/18 03:54:37;;;;;;;;;;;;;;;22.25;64.95;102200.91;5015269;28;821;-68
2021/07/18 03:57:02;;;;;;;;;;;;;;;22.24;65.03;102191.06;5015815;28;1123;-68
2021/07/18 03:59:27;;;;;;;;;;;;;;;22.23;65.29;102192.06;5015740;28;994;-68
2021/07/18 04:01:52;;;;;;;;;;;;;;;22.23;65.04;102189.34;5030593;28;907;-68
2021/07/18 04:04:18;;;;;;;;;;;;;;;22.22;65.18;102198.47;4997811;28;1767;-68
2021/07/18 04:06:43;;;;;;;;;;;;;;;22.23;65.38;102202.06;4995590;28;1037;-68
2021/07/18 04:09:08;;;;;;;;;;;;;;;22.21;65.30;102199.50;4995792;28;910;-68
2021/07/18 04:11:33;;;;;;;;;;;;;;;22.21;65.26;102204.94;4996597;28;1915;-68
2021/07/18 04:13:58;;;;;;;;;;;;;;;22.19;65.21;102201.50;4995715;28;1018;-68
2021/07/18 04:16:23;;;;;;;;;;;;;;;22.20;65.20;102205.94;4995748;28;1001;-68
2021/07/18 04:18:48;;;;;;;;;;;;;;;22.19;65.22;102200.66;5000824;28;1863;-68
2021/07/18 04:21:19;;;;;;;;;;;;;;;22.19;65.32;102209.66;5015435;28;1041;-68
2021/07/18 04:23:44;;;;;;;;;;;;;;;22.19;65.07;102208.78;5015118;28;883;-68
2021/07/18 04:26:09;;;;;;;;;;;;;;;22.18;64.94;102205.22;5014698;28;811;-68
2021/07/18 04:28:34;;;;;;;;;;;;;;;22.17;65.32;102207.06;5028596;28;1869;-68
2021/07/18 04:30:59;;;;;;;;;;;;;;;22.16;65.32;102210.78;5026902;28;926;-68
2021/07/18 04:33:24;;;;;;;;;;;;;;;22.16;65.36;102209.94;4995268;28;1945;-68
2021/07/18 04:35:49;;;;;;;;;;;;;;;22.16;65.33;102204.50;4995445;28;994;-68
2021/07/18 04:38:14;;;;;;;;;;;;;;;22.15;65.14;102208.22;5009068;28;1972;-68
2021/07/18 04:40:39;;;;;;;;;;;;;;;22.15;65.30;102203.66;5014601;28;827;-68
2021/07/18 04:43:04;;;;;;;;;;;;;;;22.14;65.26;102201.06;5014639;28;1014;-68
2021/07/18 04:45:29;;;;;;;;;;;;;;;22.13;65.15;102204.78;5014952;28;1073;-68
2021/07/18 04:47:55;;;;;;;;;;;;;;;22.13;65.56;102202.91;5003615;28;1891;-68
2021/07/18 04:50:20;;;;;;;;;;;;;;;22.13;65.29;102204.78;4995137;28;816;-68
2021/07/18 04:52:45;;;;;;;;;;;;;;;22.12;65.27;102208.50;4995103;28;1898;-68
2021/07/18 04:55:10;;;;;;;;;;;;;;;22.11;65.30;102204.06;4996143;28;1911;-68
2021/07/18 04:57:35;;;;;;;;;;;;;;;22.10;65.35;102199.63;5008815;28;1916;-68
2021/07/18 05:00:00;;;;;;;;;;;;;;;22.11;65.28;102201.34;4996337;28;1898;-68
2021/07/18 05:02:25;;;;;;;;;;;;;;;22.11;65.26;102195.91;4995119;28;1010;-68
2021/07/18 05:04:52;;;;;;;;;;;;;;;22.10;65.15;102200.50;4995056;28;1062;-68
2021/07/18 05:07:17;;;;;;;;;;;;;;;22.11;65.31;102201.34;5045041;28;1853;-68
2021/07/18 05:09:42;;;;;;;;;;;;;;;22.10;65.07;102199.63;5014684;28;987;-68
2021/07/18 05:12:07;;;;;;;;;;;;;;;22.11;65.32;102195.91;5014450;28;1918;-68
2021/07/18 05:14:33;;;;;;;;;;;;;;;22.11;65.28;102204.06;5014620;28;1002;-68
2021/07/18 05:16:58;;;;;;;;;;;;;;;22.11;65.55;102206.78;5014536;28;969;-68
2021/07/18 05:19:23;;;;;;;;;;;;;;;22.11;65.15;102201.34;5015545;28;1902;-68
2021/07/18 05:21:48;;;;;;;;;;;;;;;22.11;65.18;102198.63;5014465;28;830;-68
2021/07/18 05:24:13;;;;;;;;;;;;;;;22.11;65.39;102202.19;5014485;28;1009;-68
2021/07/18 05:26:38;;;;;;;;;;;;;;;22.12;65.26;102208.50;4999549;28;1935;-68
2021/07/18 05:29:03;;;;;;;;;;;;;;;22.12;65.12;102205.78;4995002;28;970;-68
2021/07/18 05:31:28;;;;;;;;;;;;;;;22.13;65.25;102210.22;4994610;28;1966;-68
2021/07/18 05:33:53;;;;;;;;;;;;;;;22.13;65.25;102200.22;4994890;28;846;-68
2021/07/18 05:36:18;;;;;;;;;;;;;;;22.13;65.22;102199.34;5004728;28;1890;-68
2021/07/18 05:38:43;;;;;;;;;;;;;;;22.13;65.32;102204.78;5016432;28;989;-68
2021/07/18 05:41:08;;;;;;;;;;;;;;;22.13;65.42;102193.91;5017767;28;938;-68
2021/07/18 05:43:34;;;;;;;;;;;;;;;22.13;65.04;102193.91;5017948;28;938;-68
2021/07/18 05:45:59;;;;;;;;;;;;;;;22.14;65.26;102201.06;5017830;28;807;-68
2021/07/18 05:48:24;;;;;;;;;;;;;;;22.14;65.43;102201.94;5009329;28;2232;-68
2021/07/18 05:50:50;;;;;;;;;;;;;;;22.15;65.37;102200.06;4998474;28;822;-68
2021/07/18 05:53:15;;;;;;;;;;;;;;;22.15;65.42;102200.94;4997889;28;1965;-68
2021/07/18 05:55:40;;;;;;;;;;;;;;;22.15;65.41;102206.34;4997983;28;1309;-68
2021/07/18 05:58:05;;;;;;;;;;;;;;;22.15;65.13;102198.22;4997723;28;994;-68
2021/07/18 06:00:30;;;;;;;;;;;;;;;22.16;65.11;102199.06;5004138;28;1887;-67
2021/07/18 06:02:55;;;;;;;;;;;;;;;22.17;65.16;102206.22;5017066;28;1766;-67
2021/07/18 06:05:20;;;;;;;;;;;;;;;22.17;65.19;102195.34;5017488;28;1084;-67
2021/07/18 06:07:45;;;;;;;;;;;;;;;22.16;65.22;102191.78;5017333;28;907;-67
2021/07/18 06:10:10;;;;;;;;;;;;;;;22.17;65.20;102195.34;5032265;28;1319;-67
2021/07/18 06:12:35;;;;;;;;;;;;;;;22.17;65.19;102196.22;5010345;28;1977;-67
2021/07/18 06:15:00;;;;;;;;;;;;;;;22.17;65.21;102198.94;4997655;28;856;-67
2021/07/18 06:17:27;;;;;;;;;;;;;;;22.18;65.08;102186.22;4997545;28;780;-67
2021/07/18 06:19:52;;;;;;;;;;;;;;;22.20;65.10;102196.94;4997851;28;771;-67
2021/07/18 06:22:17;;;;;;;;;;;;;;;22.19;65.22;102204.22;4997338;28;926;-67
2021/07/18 06:24:42;;;;;;;;;;;;;;;22.20;65.20;102199.66;5001402;28;1895;-67
2021/07/18 06:27:07;;;;;;;;;;;;;;;22.21;65.38;102196.78;5029183;28;1902;-67
2021/07/18 06:29:32;;;;;;;;;;;;;;;22.21;65.03;102194.09;4997339;28;812;-67
2021/07/18 06:31:57;;;;;;;;;;;;;;;22.21;65.58;102195.94;5028679;28;1947;-67
2021/07/18 06:34:22;;;;;;;;;;;;;;;22.22;65.05;102198.47;5001104;28;1970;-67
2021/07/18 06:36:48;;;;;;;;;;;;;;;22.22;65.21;102198.47;5016951;28;902;-67
2021/07/18 06:39:13;;;;;;;;;;;;;;;22.23;65.50;102205.63;5016590;28;788;-67
2021/07/18 06:41:38;;;;;;;;;;;;;;;22.23;65.17;102202.91;5016507;28;986;-67
2021/07/18 06:44:03;;;;;;;;;;;;;;;22.24;65.20;102207.34;5016423;28;891;-67
2021/07/18 06:46:28;;;;;;;;;;;;;;;22.24;65.15;102207.34;5029368;28;1832;-67
2021/07/18 06:48:53;;;;;;;;;;;;;;;22.25;65.04;102209.06;5016311;28;776;-67
2021/07/18 06:51:18;;;;;;;;;;;;;;;22.26;65.02;102210.78;5016706;28;1046;-67
2021/07/18 06:53:44;;;;;;;;;;;;;;;22.26;65.06;102204.50;5016352;28;1968;-67
2021/07/18 06:56:09;;;;;;;;;;;;;;;22.26;64.95;102199.91;5015620;28;1876;-66
2021/07/18 06:58:34;;;;;;;;;;;;;;;22.27;65.21;102209.78;5016393;28;914;-67
2021/07/18 07:00:59;;;;;;;;;;;;;;;22.27;65.05;102200.78;5016245;28;811;-67
2021/07/18 07:03:24;;;;;;;;;;;;;;;22.27;64.99;102198.91;5016332;28;1060;-67
2021/07/18 07:05:49;;;;;;;;;;;;;;;22.29;65.23;102206.94;5003283;28;2004;-67
2021/07/18 07:08:14;;;;;;;;;;;;;;;22.28;65.04;102192.50;4996525;28;2006;-67
2021/07/18 07:10:40;;;;;;;;;;;;;;;22.30;65.04;102201.34;4996277;28;966;-67
2021/07/18 07:13:06;;;;;;;;;;;;;;;22.30;64.99;102198.63;4996315;28;1968;-67
2021/07/18 07:15:31;;;;;;;;;;;;;;;22.31;64.86;102204.94;4996979;28;1065;-67
2021/07/18 07:17:57;;;;;;;;;;;;;;;22.31;64.90;102197.63;5042293;28;1917;-67
2021/07/18 07:20:22;;;;;;;;;;;;;;;22.32;65.17;102206.66;5016211;28;814;-67
2021/07/18 07:22:47;;;;;;;;;;;;;;;22.33;65.00;102205.66;5016016;28;1103;-67
2021/07/18 07:25:13;;;;;;;;;;;;;;;22.34;64.97;102207.38;5015914;28;946;-67
2021/07/18 07:27:38;;;;;;;;;;;;;;;22.34;64.83;102199.22;5015934;28;869;-67
2021/07/18 07:30:03;;;;;;;;;;;;;;;22.35;65.08;102198.22;4999411;28;1967;-67
2021/07/18 07:32:28;;;;;;;;;;;;;;;22.36;64.85;102197.22;4996485;28;1919;-67
2021/07/18 07:34:53;;;;;;;;;;;;;;;22.37;64.83;102204.38;5027734;28;1319;-67
2021/07/18 07:37:20;;;;;;;;;;;;;;;22.38;64.69;102206.09;4996265;28;1391;-67
2021/07/18 07:39:45;;;;;;;;;;;;;;;22.37;64.87;102205.22;4995929;28;772;-67
2021/07/18 07:42:10;;;;;;;;;;;;;;;22.39;64.80;102203.19;5010675;28;1902;-67
2021/07/18 07:44:35;;;;;;;;;;;;;;;22.40;64.87;102210.34;5015984;28;922;-67
2021/07/18 07:47:01;;;;;;;;;;;;;;;22.40;64.78;102207.63;5015774;28;970;-67
2021/07/18 07:49:26;;;;;;;;;;;;;;;22.41;64.77;102206.63;5009565;28;1941;-67
2021/07/18 07:51:51;;;;;;;;;;;;;;;22.42;64.86;102205.63;4995752;28;2039;-66
2021/07/18 07:54:16;;;;;;;;;;;;;;;22.42;64.72;102202.91;4995693;28;1085;-67
2021/07/18 07:56:41;;;;;;;;;;;;;;;22.43;64.65;102206.50;4995484;28;1370;-67
2021/07/18 07:59:06;;;;;;;;;;;;;;;22.43;64.54;102201.91;4998024;28;1893;-67
2021/07/18 08:01:31;;;;;;;;;;;;;;;22.43;64.77;102207.34;5014985;28;919;-66
2021/07/18 08:03:56;;;;;;;;;;;;;;;22.45;64.84;102212.63;5015146;28;815;-66
2021/07/18 08:06:21;;;;;;;;;;;;;;;22.45;64.44;102218.94;5015192;28;1165;-67
2021/07/18 08:08:46;;;;;;;;;;;;;;;22.47;64.62;102218.78;5015110;28;1057;-67
2021/07/18 08:11:12;;;;;;;;;;;;;;;22.48;64.61;102205.06;5010471;28;1843;-66
2021/07/18 08:13:37;;;;;;;;;;;;;;;22.48;64.61;102210.50;5026898;28;2638;-67
2021/07/18 08:16:02;;;;;;;;;;;;;;;22.49;64.63;102203.22;5027059;28;879;-67
2021/07/18 08:18:27;;;;;;;;;;;;;;;22.50;64.35;102202.22;4995754;28;1005;-67
2021/07/18 08:20:52;;;;;;;;;;;;;;;22.50;64.81;102197.63;4995537;28;922;-67
2021/07/18 08:23:17;;;;;;;;;;;;;;;22.51;64.65;102193.91;5032402;28;1868;-67
2021/07/18 08:25:42;;;;;;;;;;;;;;;22.52;64.60;102195.63;5014935;28;1036;-66
2021/07/18 08:28:07;;;;;;;;;;;;;;;22.54;64.72;102200.06;5015090;28;987;-67
2021/07/18 08:30:32;;;;;;;;;;;;;;;22.55;64.64;102193.63;5014960;28;823;-67
2021/07/18 08:32:57;;;;;;;;;;;;;;;22.55;64.70;102199.94;4998758;28;1951;-68
2021/07/18 08:35:22;;;;;;;;;;;;;;;22.56;64.52;102188.06;4995170;28;1018;-67
2021/07/18 08:37:48;;;;;;;;;;;;;;;22.57;64.63;102195.22;4995272;28;903;-67
2021/07/18 08:40:13;;;;;;;;;;;;;;;22.57;64.76;102194.34;4995162;28;796;-67
2021/07/18 08:42:38;;;;;;;;;;;;;;;22.57;64.46;102191.63;5007720;28;1899;-67
2021/07/18 08:45:03;;;;;;;;;;;;;;;22.59;64.67;102203.19;5014679;28;851;-67
2021/07/18 08:47:28;;;;;;;;;;;;;;;22.59;64.68;102197.75;5014701;28;985;-67
2021/07/18 08:49:53;;;;;;;;;;;;;;;22.61;64.64;102199.31;5014983;28;1049;-67
2021/07/18 08:52:18;;;;;;;;;;;;;;;22.62;64.47;102194.75;5029900;28;1890;-67
2021/07/18 08:54:43;;;;;;;;;;;;;;;22.61;64.46;102199.31;5001632;28;1861;-67
2021/07/18 08:57:08;;;;;;;;;;;;;;;22.65;64.57;102199.91;4994916;28;1160;-67
2021/07/18 08:59:35;;;;;;;;;;;;;;;22.62;64.26;102192.03;4994900;28;1010;-67
2021/07/18 09:02:00;;;;;;;;;;;;;;;22.65;64.35;102195.31;4995281;28;751;-67
2021/07/18 09:04:25;;;;;;;;;;;;;;;22.66;64.41;102190.75;4995391;28;803;-66
2021/07/18 09:06:50;;;;;;;;;;;;;;;22.68;64.35;102189.59;5006791;28;2026;-67
2021/07/18 09:09:15;;;;;;;;;;;;;;;22.67;64.29;102176.16;5014586;28;1025;-67
2021/07/18 09:11:40;;;;;;;;;;;;;;;22.70;64.28;102186.75;5014959;28;1902;-67
2021/07/18 09:14:06;;;;;;;;;;;;;;;22.71;64.31;102183.03;5018198;28;891;-67
2021/07/18 09:16:31;;;;;;;;;;;;;;;22.71;64.44;102183.03;5018415;28;791;-67
2021/07/18 09:18:56;;;;;;;;;;;;;;;22.72;64.10;102184.75;5006141;28;2026;-67
2021/07/18 09:21:21;;;;;;;;;;;;;;;22.73;64.38;102183.75;4998540;28;1822;-67
2021/07/18 09:23:46;;;;;;;;;;;;;;;22.73;64.15;102173.72;4998299;28;843;-67
2021/07/18 09:26:11;;;;;;;;;;;;;;;22.75;64.26;102187.16;4998465;28;1013;-67
2021/07/18 09:28:36;;;;;;;;;;;;;;;22.75;64.15;102177.13;4998369;28;1010;-67
2021/07/18 09:31:01;;;;;;;;;;;;;;;22.76;64.26;102181.56;5010940;28;1943;-67
2021/07/18 09:33:26;;;;;;;;;;;;;;;22.76;63.97;102183.41;5017812;28;1894;-67
2021/07/18 09:35:51;;;;;;;;;;;;;;;22.77;64.14;102172.44;5017978;28;787;-67
2021/07/18 09:38:16;;;;;;;;;;;;;;;22.78;64.26;102173.28;5032339;28;1864;-67
2021/07/18 09:40:42;;;;;;;;;;;;;;;22.78;63.92;102166.00;5017697;28;1089;-66
2021/07/18 09:43:07;;;;;;;;;;;;;;;22.80;63.93;102169.44;5018065;28;910;-67
2021/07/18 09:45:32;;;;;;;;;;;;;;;22.80;63.97;102165.84;5017634;28;780;-67
2021/07/18 09:47:58;;;;;;;;;;;;;;;22.82;64.21;102172.00;5017187;28;1878;-67
2021/07/18 09:50:23;;;;;;;;;;;;;;;22.82;64.16;102170.16;5017635;28;819;-67
2021/07/18 09:52:48;;;;;;;;;;;;;;;22.84;64.10;102172.72;5017661;28;1910;-67
2021/07/18 09:55:13;;;;;;;;;;;;;;;22.85;64.27;102174.44;5017519;28;1050;-67
2021/07/18 09:57:41;;;;;;;;;;;;;;;22.84;64.16;102170.84;5017472;28;875;-67
2021/07/18 10:00:06;;;;;;;;;;;;;;;22.85;64.19;102174.44;5012772;28;1968;-67
2021/07/18 10:02:32;;;;;;;;;;;;;;;22.85;63.88;102172.56;4998120;28;982;-67
2021/07/18 10:04:57;;;;;;;;;;;;;;;22.87;64.14;102174.28;4997926;28;848;-67
2021/07/18 10:07:22;;;;;;;;;;;;;;;22.86;64.27;102162.56;5029275;28;1650;-66
2021/07/18 10:09:47;;;;;;;;;;;;;;;22.88;64.26;102168.72;4997659;28;831;-67
2021/07/18 10:12:12;;;;;;;;;;;;;;;22.88;64.07;102179.59;5002335;28;1970;-67
2021/07/18 10:14:37;;;;;;;;;;;;;;;22.90;64.12;102176.72;5017250;28;1005;-67
2021/07/18 10:17:02;;;;;;;;;;;;;;;22.91;64.11;102167.56;5017184;28;922;-67
2021/07/18 10:19:27;;;;;;;;;;;;;;;22.91;63.95;102162.13;5031369;28;1679;-67
2021/07/18 10:21:53;;;;;;;;;;;;;;;22.91;64.27;102157.53;4997510;28;1699;-67
2021/07/18 10:24:18;;;;;;;;;;;;;;;22.92;64.16;102155.69;4997250;28;954;-67
2021/07/18 10:26:43;;;;;;;;;;;;;;;22.94;63.99;102165.38;4997709;28;943;-67
2021/07/18 10:29:08;;;;;;;;;;;;;;;22.94;63.87;102157.22;4997176;28;875;-67
2021/07/18 10:31:33;;;;;;;;;;;;;;;22.94;64.27;102164.53;5013652;28;1902;-67
2021/07/18 10:33:58;;;;;;;;;;;;;;;22.94;63.96;102157.22;5032200;28;1219;-67
2021/07/18 10:36:23;;;;;;;;;;;;;;;22.95;63.74;102147.19;5016753;28;808;-67
2021/07/18 10:38:48;;;;;;;;;;;;;;;22.96;63.81;102160.66;5027394;28;1871;-68
2021/07/18 10:41:15;;;;;;;;;;;;;;;22.96;63.90;102160.66;5048597;28;899;-67
2021/07/18 10:43:40;;;;;;;;;;;;;;;22.98;64.09;102152.34;5016853;28;760;-67
2021/07/18 10:46:05;;;;;;;;;;;;;;;22.98;64.03;102157.78;5016795;28;885;-67
2021/07/18 10:48:30;;;;;;;;;;;;;;;22.99;63.79;102148.63;5016013;28;1930;-67
2021/07/18 10:50:55;;;;;;;;;;;;;;;22.98;63.94;102147.78;5016589;28;1002;-67
2021/07/18 10:53:21;;;;;;;;;;;;;;;23.00;63.56;102150.34;5016842;28;1957;-67
2021/07/18 10:55:46;;;;;;;;;;;;;;;23.00;64.07;102144.91;5016222;28;1146;-67
2021/07/18 10:58:11;;;;;;;;;;;;;;;23.00;63.73;102143.03;5016365;28;791;-68
2021/07/18 11:00:36;;;;;;;;;;;;;;;23.01;63.79;102147.47;5026472;28;1867;-67
2021/07/18 11:03:01;;;;;;;;;;;;;;;23.02;63.69;102140.19;5004152;28;2010;-67
2021/07/18 11:05:26;;;;;;;;;;;;;;;23.01;63.88;102136.59;4996786;28;907;-67
2021/07/18 11:07:51;;;;;;;;;;;;;;;23.03;63.67;102145.47;5028129;28;1363;-67
2021/07/18 11:10:17;;;;;;;;;;;;;;;23.04;63.58;102133.59;4996399;28;1002;-67
2021/07/18 11:12:42;;;;;;;;;;;;;;;23.05;63.51;102135.31;5007404;28;1929;-67
2021/07/18 11:15:07;;;;;;;;;;;;;;;23.06;63.44;102134.31;5015949;28;1061;-67
2021/07/18 11:17:32;;;;;;;;;;;;;;;23.08;63.36;102136.88;5016056;28;1010;-67
2021/07/18 11:19:58;;;;;;;;;;;;;;;23.07;63.10;102133.28;5031110;28;1687;-67
2021/07/18 11:22:23;;;;;;;;;;;;;;;23.10;63.13;102134.88;5015841;28;850;-67
2021/07/18 11:24:48;;;;;;;;;;;;;;;23.10;63.11;102129.44;5005737;28;1838;-67
2021/07/18 11:27:13;;;;;;;;;;;;;;;23.11;63.60;102131.13;4996370;28;1865;-67
2021/07/18 11:29:38;;;;;;;;;;;;;;;23.11;63.54;102125.69;4996042;28;844;-67
2021/07/18 11:32:03;;;;;;;;;;;;;;;23.10;63.62;102127.56;5027661;28;1959;-67
2021/07/18 11:34:29;;;;;;;;;;;;;;;23.11;63.54;102123.81;4996185;28;1001;-67
2021/07/18 11:36:54;;;;;;;;;;;;;;;23.12;63.57;102121.94;5004890;28;2016;-67
2021/07/18 11:39:19;;;;;;;;;;;;;;;23.13;63.46;102124.50;5015708;28;795;-67
2021/07/18 11:41:45;;;;;;;;;;;;;;;23.15;62.93;102118.94;5015510;28;839;-67
2021/07/18 11:44:10;;;;;;;;;;;;;;;23.16;63.11;102118.78;5015713;28;866;-67
2021/07/18 11:46:35;;;;;;;;;;;;;;;23.15;63.10;102122.50;5015540;28;874;-67
2021/07/18 11:49:04;;;;;;;;;;;;;;;23.15;63.52;102117.06;5020840;28;1921;-67
2021/07/18 11:51:29;;;;;;;;;;;;;;;23.17;63.20;102109.63;5047797;28;1690;-67
2021/07/18 11:53:54;;;;;;;;;;;;;;;23.16;63.45;102105.19;5015334;28;1886;-67
2021/07/18 11:56:19;;;;;;;;;;;;;;;23.18;63.29;102114.06;5015819;28;1098;-67
2021/07/18 11:58:45;;;;;;;;;;;;;;;23.18;63.54;102105.03;5015706;28;831;-67
2021/07/18 12:01:10;;;;;;;;;;;;;;;23.18;63.40;102105.03;5014641;28;1932;-67
2021/07/18 12:03:35;;;;;;;;;;;;;;;23.19;63.02;102104.03;5015283;28;1087;-67
2021/07/18 12:06:00;;;;;;;;;;;;;;;23.20;63.63;102098.44;5015518;28;1057;-67
2021/07/18 12:08:25;;;;;;;;;;;;;;;23.22;63.29;102100.16;5015310;28;942;-67
2021/07/18 12:10:50;;;;;;;;;;;;;;;23.23;62.98;102099.16;5015233;28;784;-67
2021/07/18 12:13:16;;;;;;;;;;;;;;;23.25;63.10;102099.84;5000310;28;1969;-67
2021/07/18 12:15:41;;;;;;;;;;;;;;;23.25;62.79;102100.72;4995362;28;886;-67
2021/07/18 12:18:06;;;;;;;;;;;;;;;23.27;63.05;102086.97;4995656;28;994;-67
2021/07/18 12:20:31;;;;;;;;;;;;;;;23.29;63.13;102095.84;4995452;28;807;-67
2021/07/18 12:22:56;;;;;;;;;;;;;;;23.30;62.88;102102.97;4995451;28;819;-67
2021/07/18 12:25:21;;;;;;;;;;;;;;;23.32;62.96;102104.53;5009063;28;2036;-67
2021/07/18 12:27:47;;;;;;;;;;;;;;;23.33;62.95;102095.34;5014651;28;2017;-67
2021/07/18 12:30:13;;;;;;;;;;;;;;;23.34;63.03;102101.66;5015054;28;798;-67
2021/07/18 12:32:38;;;;;;;;;;;;;;;23.34;63.10;102094.34;5003617;28;2026;-67
2021/07/18 12:35:03;;;;;;;;;;;;;;;23.34;62.89;102083.47;4995669;28;899;-67
2021/07/18 12:37:28;;;;;;;;;;;;;;;23.38;63.09;102089.47;4995198;28;923;-67
2021/07/18 12:39:56;;;;;;;;;;;;;;;23.38;62.82;102097.63;4995195;28;808;-67